Time;durP1;ratioP1;P1;durP2;ratioP2;P2;SDS_P1;SDS_P2;PMS_P1;PMS_P2;Temp;Humidity;BMP_temperature;BMP_pressure;BME280_temperature;BME280_humidity;BME280_pressure;Samples;Min_cycle;Max_cycle;Signal;HPM_P1;HPM_P2
2024/03/24 00:01:22;;;;;;;1.50;1.30;;;5.40;98.20;;;;;;4888273;29;20509;-79
2024/03/24 00:03:49;;;;;;;1.53;1.27;;;5.40;98.20;;;;;;4886338;29;20589;-79
2024/03/24 00:06:15;;;;;;;1.57;1.20;;;5.30;98.20;;;;;;4874540;29;20217;-79
2024/03/24 00:08:42;;;;;;;1.57;1.30;;;5.30;98.20;;;;;;4874523;29;20470;-79
2024/03/24 00:11:10;;;;;;;1.57;1.30;;;5.30;98.20;;;;;;4872706;29;20573;-79
2024/03/24 00:13:37;;;;;;;1.50;1.20;;;5.40;98.20;;;;;;4870910;29;20811;-79
2024/03/24 00:16:03;;;;;;;1.50;1.30;;;5.40;98.20;;;;;;4873806;29;20534;-79
2024/03/24 00:18:30;;;;;;;1.53;1.30;;;5.40;98.20;;;;;;4874033;29;20497;-79
2024/03/24 00:20:56;;;;;;;1.53;1.40;;;5.40;98.20;;;;;;4871988;29;20482;-79
2024/03/24 00:23:23;;;;;;;1.50;1.20;;;5.50;98.20;;;;;;4873236;29;20466;-79
2024/03/24 00:25:49;;;;;;;1.53;1.30;;;5.50;98.20;;;;;;4871640;29;20502;-79
2024/03/24 00:28:17;;;;;;;1.50;1.20;;;5.50;98.20;;;;;;4872861;29;20506;-79
2024/03/24 00:30:43;;;;;;;1.50;1.30;;;5.40;98.20;;;;;;4871101;29;20490;-79
2024/03/24 00:33:10;;;;;;;1.53;1.30;;;5.40;98.20;;;;;;4870148;29;20837;-79
2024/03/24 00:35:36;;;;;;;1.53;1.20;;;5.40;98.20;;;;;;4871463;29;20210;-78
2024/03/24 00:38:04;;;;;;;1.50;1.30;;;5.40;98.20;;;;;;4874094;29;20466;-79
2024/03/24 00:40:30;;;;;;;1.57;1.30;;;5.40;98.20;;;;;;4875639;29;20504;-79
2024/03/24 00:42:57;;;;;;;1.53;1.30;;;5.30;98.20;;;;;;4871896;29;20506;-79
2024/03/24 00:45:25;;;;;;;1.50;1.20;;;5.30;98.20;;;;;;4872858;29;20474;-79
2024/03/24 00:47:52;;;;;;;1.53;1.30;;;5.40;98.20;;;;;;4872902;29;20485;-79
2024/03/24 00:50:18;;;;;;;1.50;1.27;;;5.40;98.20;;;;;;4875588;29;21045;-79
2024/03/24 00:52:45;;;;;;;1.53;1.30;;;5.40;98.20;;;;;;4874804;29;20474;-79
2024/03/24 00:55:11;;;;;;;1.53;1.30;;;5.40;98.20;;;;;;4875599;29;20472;-79
2024/03/24 00:57:38;;;;;;;1.50;1.30;;;5.40;98.20;;;;;;4873213;29;20481;-79
2024/03/24 01:00:05;;;;;;;1.53;1.27;;;5.40;98.20;;;;;;4871580;29;20514;-78
2024/03/24 01:02:34;;;;;;;1.50;1.20;;;5.40;98.20;;;;;;4872496;29;20905;-78
2024/03/24 01:05:01;;;;;;;1.50;1.30;;;5.40;98.20;;;;;;4876461;29;20558;-78
2024/03/24 01:07:29;;;;;;;1.50;1.20;;;5.40;98.20;;;;;;4876841;29;20462;-79
2024/03/24 01:09:55;;;;;;;1.60;1.30;;;5.40;98.20;;;;;;4877187;29;20927;-80
2024/03/24 01:12:23;;;;;;;1.50;1.20;;;5.30;98.20;;;;;;4877718;29;20514;-79
2024/03/24 01:14:49;;;;;;;1.50;1.20;;;5.30;98.20;;;;;;4877704;29;20639;-79
2024/03/24 01:17:17;;;;;;;1.50;1.30;;;5.30;98.20;;;;;;4876728;29;20492;-79
2024/03/24 01:19:44;;;;;;;1.53;1.30;;;5.30;98.20;;;;;;4876604;29;20505;-77
2024/03/24 01:22:11;;;;;;;1.53;1.20;;;5.30;98.20;;;;;;4871977;29;20949;-77
2024/03/24 01:24:37;;;;;;;1.50;1.20;;;5.30;98.20;;;;;;4872745;29;20494;-77
2024/03/24 01:27:04;;;;;;;1.60;1.40;;;5.30;98.20;;;;;;4875730;29;21246;-77
2024/03/24 01:29:30;;;;;;;1.50;1.30;;;5.30;98.20;;;;;;4876087;29;21075;-77
2024/03/24 01:31:57;;;;;;;1.50;1.20;;;5.30;98.20;;;;;;4874529;29;20495;-77
2024/03/24 01:34:24;;;;;;;1.60;1.30;;;5.30;98.20;;;;;;4875417;29;20225;-78
2024/03/24 01:36:52;;;;;;;1.50;1.23;;;5.40;98.20;;;;;;4874456;29;20836;-78
2024/03/24 01:39:18;;;;;;;1.60;1.40;;;5.40;98.20;;;;;;4873546;29;20470;-78
2024/03/24 01:41:45;;;;;;;1.60;1.33;;;5.50;98.20;;;;;;4874201;29;20509;-78
2024/03/24 01:44:11;;;;;;;1.50;1.30;;;5.50;98.20;;;;;;4874809;29;20527;-78
2024/03/24 01:46:38;;;;;;;1.50;1.30;;;5.50;98.20;;;;;;4874051;29;20478;-78
2024/03/24 01:49:04;;;;;;;1.53;1.20;;;5.60;98.20;;;;;;4874056;29;20665;-78
2024/03/24 01:51:36;;;;;;;1.50;1.30;;;5.60;98.20;;;;;;4875244;29;21167;-78
2024/03/24 01:54:03;;;;;;;1.57;1.30;;;5.70;98.20;;;;;;4875667;29;20634;-78
2024/03/24 01:56:32;;;;;;;1.57;1.30;;;5.70;98.20;;;;;;4877066;29;20782;-78
2024/03/24 01:58:58;;;;;;;1.53;1.30;;;5.70;98.20;;;;;;4877520;29;21018;-78
2024/03/24 02:01:25;;;;;;;1.60;1.40;;;5.70;98.20;;;;;;4874606;29;20502;-78
2024/03/24 02:03:50;;;;;;;1.50;1.20;;;5.80;98.20;;;;;;4873639;29;20210;-77
2024/03/24 02:06:17;;;;;;;1.53;1.20;;;5.80;98.20;;;;;;4875058;29;20482;-78
2024/03/24 02:08:43;;;;;;;1.60;1.30;;;5.80;98.20;;;;;;4874316;29;20296;-78
2024/03/24 02:11:12;;;;;;;1.60;1.40;;;5.80;98.20;;;;;;4874723;29;20578;-78
2024/03/24 02:13:38;;;;;;;1.57;1.30;;;5.90;98.20;;;;;;4864528;29;20224;-79
2024/03/24 02:16:05;;;;;;;1.57;1.40;;;5.90;98.20;;;;;;4873828;29;20557;-78
2024/03/24 02:18:31;;;;;;;1.50;1.30;;;5.90;98.20;;;;;;4874246;29;20462;-78
2024/03/24 02:20:58;;;;;;;1.57;1.23;;;5.90;98.20;;;;;;4873157;29;20569;-78
2024/03/24 02:23:26;;;;;;;1.53;1.30;;;5.90;98.20;;;;;;4873908;29;20214;-78
2024/03/24 02:25:52;;;;;;;1.50;1.30;;;6.00;98.20;;;;;;4873393;29;20536;-78
2024/03/24 02:28:19;;;;;;;1.53;1.30;;;6.00;98.20;;;;;;4873428;29;20972;-79
2024/03/24 02:30:46;;;;;;;1.50;1.20;;;6.00;98.20;;;;;;4873026;29;20526;-78
2024/03/24 02:33:12;;;;;;;1.50;1.30;;;6.00;98.20;;;;;;4873217;29;20470;-78
2024/03/24 02:35:41;;;;;;;1.60;1.50;;;6.00;98.20;;;;;;4873705;29;20510;-79
2024/03/24 02:38:07;;;;;;;1.50;1.30;;;6.00;98.20;;;;;;4874304;29;20478;-78
2024/03/24 02:40:36;;;;;;;1.60;1.40;;;6.00;98.20;;;;;;4874783;29;20500;-78
2024/03/24 02:43:02;;;;;;;1.50;1.20;;;6.00;98.20;;;;;;4873931;29;20522;-78
2024/03/24 02:45:29;;;;;;;1.57;1.30;;;6.10;98.20;;;;;;4874469;29;20474;-78
2024/03/24 02:47:55;;;;;;;1.50;1.20;;;6.10;98.20;;;;;;4873217;29;20505;-79
2024/03/24 02:50:22;;;;;;;1.60;1.30;;;6.10;98.20;;;;;;4874522;29;21033;-78
2024/03/24 02:52:48;;;;;;;1.50;1.20;;;6.10;98.20;;;;;;4873749;29;20466;-79
2024/03/24 02:55:15;;;;;;;1.60;1.40;;;6.10;98.20;;;;;;4874603;29;20470;-79
2024/03/24 02:57:42;;;;;;;1.50;1.20;;;6.10;98.20;;;;;;4873572;29;20482;-79
2024/03/24 03:00:10;;;;;;;1.50;1.20;;;6.10;98.20;;;;;;4874096;29;20700;-78
2024/03/24 03:02:36;;;;;;;1.60;1.30;;;6.10;98.20;;;;;;4873232;29;20517;-79
2024/03/24 03:05:04;;;;;;;1.57;1.27;;;6.20;98.20;;;;;;4872220;29;20470;-78
2024/03/24 03:07:30;;;;;;;1.50;1.20;;;6.20;98.20;;;;;;4873980;29;20474;-79
2024/03/24 03:09:57;;;;;;;1.50;1.30;;;6.20;98.20;;;;;;4872437;29;20486;-79
2024/03/24 03:12:23;;;;;;;1.57;1.30;;;6.20;98.20;;;;;;4873140;29;20218;-79
2024/03/24 03:14:51;;;;;;;1.53;1.20;;;6.20;98.20;;;;;;4872757;29;20934;-79
2024/03/24 03:17:17;;;;;;;1.57;1.40;;;6.20;98.20;;;;;;4873954;29;20474;-79
2024/03/24 03:19:44;;;;;;;1.53;1.23;;;6.10;98.20;;;;;;4874283;29;21008;-81
2024/03/24 03:22:10;;;;;;;1.53;1.30;;;6.10;98.20;;;;;;4873281;29;20627;-81
2024/03/24 03:24:37;;;;;;;1.50;1.30;;;6.10;98.20;;;;;;4875067;29;20470;-80
2024/03/24 03:27:03;;;;;;;1.50;1.20;;;6.10;98.20;;;;;;4875423;29;20674;-80
2024/03/24 03:29:30;;;;;;;1.50;1.30;;;6.00;98.20;;;;;;4878459;29;20463;-81
2024/03/24 03:31:57;;;;;;;1.50;1.30;;;6.00;98.20;;;;;;4877440;29;20482;-80
2024/03/24 03:34:24;;;;;;;1.50;1.20;;;6.00;98.20;;;;;;4877840;29;20475;-79
2024/03/24 03:36:50;;;;;;;1.53;1.30;;;5.90;98.20;;;;;;4875196;29;20629;-80
2024/03/24 03:39:16;;;;;;;1.50;1.30;;;5.90;98.20;;;;;;4874681;29;20993;-79
2024/03/24 03:41:43;;;;;;;1.57;1.30;;;5.80;98.20;;;;;;4873805;29;20268;-80
2024/03/24 03:44:10;;;;;;;1.57;1.30;;;5.70;98.20;;;;;;4876041;29;20470;-80
2024/03/24 03:46:36;;;;;;;1.53;1.30;;;5.70;98.20;;;;;;4876534;29;20475;-80
2024/03/24 03:49:04;;;;;;;1.53;1.40;;;5.60;98.20;;;;;;4874436;29;20477;-79
2024/03/24 03:51:37;;;;;;;1.53;1.30;;;5.60;98.20;;;;;;4875681;29;20234;-80
2024/03/24 03:54:04;;;;;;;1.97;1.80;;;5.60;98.20;;;;;;4873309;29;20981;-79
2024/03/24 03:56:30;;;;;;;1.50;1.30;;;5.60;98.20;;;;;;4874453;29;20467;-79
2024/03/24 03:58:56;;;;;;;1.50;1.20;;;5.60;98.20;;;;;;4874038;29;20977;-79
2024/03/24 04:01:22;;;;;;;1.53;1.27;;;5.60;98.20;;;;;;4875216;29;20508;-80
2024/03/24 04:03:49;;;;;;;1.60;1.50;;;5.60;98.20;;;;;;4875065;29;20731;-80
2024/03/24 04:06:16;;;;;;;1.57;1.20;;;5.60;98.20;;;;;;4880457;29;20242;-79
2024/03/24 04:08:43;;;;;;;1.50;1.30;;;5.60;98.20;;;;;;4883650;29;20518;-80
2024/03/24 04:11:09;;;;;;;1.57;1.37;;;5.60;98.20;;;;;;4877681;29;20531;-80
2024/03/24 04:13:36;;;;;;;1.50;1.27;;;5.60;98.20;;;;;;4889857;23;20505;-85
2024/03/24 04:16:04;;;;;;;1.50;1.30;;;5.60;98.20;;;;;;4878068;29;20214;-83
2024/03/24 04:18:31;;;;;;;1.50;1.30;;;5.60;98.20;;;;;;4878514;29;20498;-80
2024/03/24 04:21:02;;;;;;;1.50;1.30;;;5.60;98.20;;;;;;4878789;29;20470;-80
2024/03/24 04:23:30;;;;;;;1.53;1.30;;;5.60;98.20;;;;;;4876806;29;20520;-80
2024/03/24 04:25:56;;;;;;;1.50;1.20;;;5.70;98.20;;;;;;4878470;29;20843;-80
2024/03/24 04:28:23;;;;;;;1.60;1.30;;;5.70;98.20;;;;;;4877354;29;20558;-80
2024/03/24 04:30:49;;;;;;;1.50;1.30;;;5.70;98.20;;;;;;4877934;29;20473;-80
2024/03/24 04:33:16;;;;;;;1.50;1.30;;;5.70;98.20;;;;;;4877480;29;20573;-81
2024/03/24 04:35:42;;;;;;;1.57;1.30;;;5.70;98.20;;;;;;4880998;29;20216;-80
2024/03/24 04:38:09;;;;;;;1.50;1.20;;;5.70;98.20;;;;;;4877755;29;20541;-79
2024/03/24 04:40:38;;;;;;;1.50;1.30;;;5.80;98.20;;;;;;4879630;29;20553;-79
2024/03/24 04:43:05;;;;;;;1.57;1.23;;;5.80;98.20;;;;;;4876667;29;20788;-81
2024/03/24 04:45:38;;;;;;;1.50;1.20;;;5.80;98.20;;;;;;4878512;29;20493;-82
2024/03/24 04:48:06;;;;;;;1.50;1.30;;;5.80;98.20;;;;;;4878279;29;20557;-81
2024/03/24 04:50:32;;;;;;;1.60;1.40;;;5.80;98.20;;;;;;4879320;29;20989;-84
2024/03/24 04:52:59;;;;;;;1.50;1.20;;;5.80;98.20;;;;;;4883136;29;20494;-84
2024/03/24 04:55:28;;;;;;;1.50;1.20;;;5.70;98.20;;;;;;4878699;29;20462;-82
2024/03/24 04:57:56;;;;;;;1.50;1.20;;;5.70;98.20;;;;;;4876092;29;20966;-81
2024/03/24 05:00:25;;;;;;;1.53;1.20;;;5.70;98.20;;;;;;4878389;29;20549;-81
2024/03/24 05:02:51;;;;;;;1.53;1.30;;;5.60;98.20;;;;;;4877257;29;20588;-82
2024/03/24 05:05:17;;;;;;;1.50;1.20;;;5.70;98.20;;;;;;4878239;29;20970;-81
2024/03/24 05:07:48;;;;;;;1.50;1.20;;;5.60;98.20;;;;;;4876385;29;20565;-80
2024/03/24 05:10:14;;;;;;;1.50;1.20;;;5.60;98.20;;;;;;4878766;29;20443;-80
2024/03/24 05:12:41;;;;;;;1.60;1.40;;;5.60;98.20;;;;;;4875087;29;20501;-82
2024/03/24 05:15:10;;;;;;;1.50;1.20;;;5.60;98.20;;;;;;4877871;29;20637;-81
2024/03/24 05:17:37;;;;;;;2.63;2.43;;;5.70;98.20;;;;;;4875974;29;21226;-80
2024/03/24 05:20:04;;;;;;;1.50;1.23;;;5.70;98.20;;;;;;4885440;29;20740;-80
2024/03/24 05:22:30;;;;;;;1.50;1.20;;;5.80;98.20;;;;;;4888647;29;20486;-80
2024/03/24 05:24:57;;;;;;;1.57;1.30;;;5.80;98.20;;;;;;4876311;29;20565;-80
2024/03/24 05:27:23;;;;;;;1.57;1.30;;;5.80;98.20;;;;;;4875169;29;20572;-80
2024/03/24 05:29:49;;;;;;;1.50;1.30;;;5.80;98.20;;;;;;4870884;29;20803;-81
2024/03/24 05:32:17;;;;;;;1.53;1.37;;;5.80;98.20;;;;;;4875205;29;20493;-80
2024/03/24 05:34:43;;;;;;;1.57;1.30;;;5.80;98.20;;;;;;4876204;29;20220;-82
2024/03/24 05:37:10;;;;;;;1.50;1.20;;;5.90;98.20;;;;;;4876579;29;20474;-79
2024/03/24 05:39:36;;;;;;;1.50;1.30;;;5.90;98.20;;;;;;4878417;29;20489;-79
2024/03/24 05:42:03;;;;;;;1.60;1.43;;;5.90;98.20;;;;;;4875104;29;20522;-79
2024/03/24 05:44:30;;;;;;;1.50;1.20;;;5.90;98.20;;;;;;4875361;29;20214;-80
2024/03/24 05:46:56;;;;;;;2.23;2.03;;;5.90;98.20;;;;;;4875042;29;20534;-78
2024/03/24 05:49:24;;;;;;;6.73;6.10;;;5.90;98.20;;;;;;4876743;29;20470;-83
2024/03/24 05:51:52;;;;;;;1.60;1.30;;;5.90;98.20;;;;;;4874353;29;20543;-81
2024/03/24 05:54:21;;;;;;;1.60;1.50;;;6.00;98.20;;;;;;4879897;29;20971;-79
2024/03/24 05:56:48;;;;;;;1.57;1.20;;;6.00;98.20;;;;;;4876855;29;20822;-81
2024/03/24 05:59:14;;;;;;;1.50;1.20;;;6.00;98.20;;;;;;4876462;29;20473;-79
2024/03/24 06:01:40;;;;;;;1.53;1.20;;;6.10;98.20;;;;;;4876024;29;20831;-80
2024/03/24 06:04:06;;;;;;;1.60;1.40;;;6.10;98.20;;;;;;4874246;29;20212;-79
2024/03/24 06:06:34;;;;;;;1.57;1.20;;;6.20;98.20;;;;;;4875813;29;20466;-79
2024/03/24 06:09:00;;;;;;;1.57;1.20;;;6.20;98.20;;;;;;4873766;29;20988;-79
2024/03/24 06:11:27;;;;;;;1.50;1.30;;;6.20;98.20;;;;;;4875521;29;20470;-79
2024/03/24 06:13:53;;;;;;;1.60;1.40;;;6.30;98.20;;;;;;4873820;29;20242;-80
2024/03/24 06:16:19;;;;;;;1.50;1.20;;;6.30;98.20;;;;;;4877706;29;20477;-80
2024/03/24 06:18:45;;;;;;;1.60;1.30;;;6.40;98.20;;;;;;4875298;29;20214;-80
2024/03/24 06:21:12;;;;;;;1.53;1.40;;;6.40;98.20;;;;;;4876137;29;20506;-81
2024/03/24 06:23:39;;;;;;;10.20;9.50;;;6.40;98.20;;;;;;4874915;29;21049;-79
2024/03/24 06:26:07;;;;;;;1.50;1.20;;;6.50;98.20;;;;;;4874760;29;20951;-80
2024/03/24 06:28:33;;;;;;;1.57;1.20;;;6.50;98.20;;;;;;4875480;29;20475;-78
2024/03/24 06:31:00;;;;;;;1.50;1.20;;;6.60;98.20;;;;;;4874663;29;20477;-78
2024/03/24 06:33:26;;;;;;;1.50;1.20;;;6.60;98.20;;;;;;4873912;29;20226;-79
2024/03/24 06:35:53;;;;;;;1.50;1.20;;;6.70;98.20;;;;;;4874837;29;21045;-79
2024/03/24 06:38:19;;;;;;;1.50;1.20;;;6.70;98.20;;;;;;4875803;29;20221;-77
2024/03/24 06:40:47;;;;;;;1.50;1.20;;;6.70;98.20;;;;;;4874379;29;20466;-81
2024/03/24 06:43:19;;;;;;;1.57;1.20;;;6.70;98.20;;;;;;4875267;29;20502;-79
2024/03/24 06:45:48;;;;;;;1.57;1.27;;;6.80;98.20;;;;;;4877236;29;20470;-81
2024/03/24 06:48:15;;;;;;;1.57;1.30;;;6.80;98.20;;;;;;4878470;29;20561;-78
2024/03/24 06:50:41;;;;;;;1.60;1.27;;;6.90;98.20;;;;;;4870931;29;20530;-80
2024/03/24 06:53:07;;;;;;;1.50;1.20;;;6.90;98.20;;;;;;4871626;29;20486;-79
2024/03/24 06:55:34;;;;;;;1.57;1.20;;;6.90;98.20;;;;;;4877757;29;20502;-78
2024/03/24 06:58:02;;;;;;;1.57;1.23;;;7.00;98.20;;;;;;4870584;29;20777;-78
2024/03/24 07:00:29;;;;;;;1.53;1.13;;;7.00;98.20;;;;;;4874477;29;20962;-79
2024/03/24 07:02:55;;;;;;;1.50;1.20;;;7.00;98.20;;;;;;4873636;29;20502;-78
2024/03/24 07:05:21;;;;;;;1.53;1.20;;;7.10;98.20;;;;;;4874105;29;20985;-81
2024/03/24 07:07:49;;;;;;;1.53;1.20;;;7.10;98.20;;;;;;4873945;29;20210;-78
2024/03/24 07:10:16;;;;;;;1.50;1.20;;;7.10;98.20;;;;;;4874632;29;20482;-79
2024/03/24 07:12:41;;;;;;;1.50;1.20;;;7.10;98.20;;;;;;4874090;29;20892;-78
2024/03/24 07:15:10;;;;;;;1.53;1.20;;;7.10;98.20;;;;;;4873743;29;20474;-81
2024/03/24 07:17:36;;;;;;;1.53;1.20;;;7.10;98.20;;;;;;4875911;29;20258;-80
2024/03/24 07:20:04;;;;;;;1.50;1.20;;;7.10;98.20;;;;;;4875132;29;21180;-80
2024/03/24 07:22:30;;;;;;;1.57;1.30;;;7.10;98.20;;;;;;4874466;29;20502;-81
2024/03/24 07:24:58;;;;;;;1.50;1.13;;;7.30;98.20;;;;;;4877211;29;20977;-82
2024/03/24 07:27:24;;;;;;;1.50;1.20;;;7.50;98.20;;;;;;4877341;29;20214;-82
2024/03/24 07:29:51;;;;;;;1.53;1.20;;;7.60;98.20;;;;;;4879456;29;20522;-83
2024/03/24 07:32:18;;;;;;;1.50;1.20;;;7.70;98.20;;;;;;4878558;29;20482;-80
2024/03/24 07:34:45;;;;;;;1.50;1.20;;;7.70;98.20;;;;;;4877935;29;20969;-82
2024/03/24 07:37:11;;;;;;;1.57;1.20;;;7.70;98.20;;;;;;4876945;29;20846;-81
2024/03/24 07:39:38;;;;;;;1.60;1.30;;;7.70;98.20;;;;;;4877898;29;20557;-80
2024/03/24 07:42:03;;;;;;;1.53;1.20;;;7.70;98.20;;;;;;4876329;29;20238;-81
2024/03/24 07:44:30;;;;;;;1.60;1.30;;;7.70;98.20;;;;;;4877990;29;20473;-83
2024/03/24 07:46:56;;;;;;;1.60;1.40;;;7.70;98.20;;;;;;4874003;29;20220;-85
2024/03/24 07:49:39;;;;;;;1.53;1.20;;;7.60;98.20;;;;;;4883258;29;20510;-85
2024/03/24 08:02:28;;;;;;;1.60;1.40;;;7.10;98.20;;;;;;2089265;23;20456;-88
2024/03/24 08:11:53;;;;;;;1.57;1.20;;;6.80;98.20;;;;;;4878454;29;20494;-85
2024/03/24 08:14:20;;;;;;;1.60;1.30;;;6.80;98.20;;;;;;4868841;29;20495;-83
2024/03/24 08:16:47;;;;;;;1.50;1.10;;;6.80;98.20;;;;;;4869794;29;20481;-86
2024/03/24 08:19:14;;;;;;;1.50;1.20;;;6.80;98.20;;;;;;4877782;29;20464;-83
2024/03/24 08:21:43;;;;;;;1.50;1.20;;;6.80;98.20;;;;;;4871280;29;20479;-83
2024/03/24 08:24:09;;;;;;;1.50;1.20;;;6.90;98.20;;;;;;4868965;29;20934;-85
2024/03/24 08:26:36;;;;;;;1.50;1.20;;;6.90;98.20;;;;;;4874181;29;20499;-81
2024/03/24 08:29:03;;;;;;;1.50;1.20;;;7.00;98.20;;;;;;4873555;29;20471;-84
2024/03/24 08:31:30;;;;;;;1.53;1.20;;;7.10;98.20;;;;;;4873154;29;20978;-83
2024/03/24 08:33:56;;;;;;;1.50;1.20;;;7.20;98.20;;;;;;4868816;29;20560;-83
2024/03/24 08:36:23;;;;;;;1.50;1.20;;;7.30;98.20;;;;;;4880855;29;20485;-82
2024/03/24 08:38:49;;;;;;;1.50;1.20;;;7.40;98.20;;;;;;4872189;29;20494;-84
2024/03/24 08:41:16;;;;;;;1.50;1.20;;;7.50;98.20;;;;;;4876219;29;20540;-82
2024/03/24 08:43:55;;;;;;;1.53;1.20;;;7.60;98.20;;;;;;4872465;29;20325;-83
2024/03/24 08:46:28;;;;;;;1.50;1.10;;;7.80;98.20;;;;;;4873085;29;20471;-84
2024/03/24 08:48:54;;;;;;;1.50;1.20;;;7.90;98.20;;;;;;4873443;29;20459;-82
2024/03/24 08:51:21;;;;;;;1.53;1.30;;;8.00;98.20;;;;;;4865870;29;20468;-85
2024/03/24 08:53:47;;;;;;;1.50;1.17;;;8.10;98.20;;;;;;4873209;29;20506;-84
2024/03/24 08:56:20;;;;;;;1.53;1.10;;;8.20;98.20;;;;;;4870515;29;20467;-81
2024/03/24 08:58:46;;;;;;;1.50;1.20;;;8.30;98.20;;;;;;4875645;29;20467;-81
2024/03/24 09:01:12;;;;;;;1.50;1.10;;;8.30;98.20;;;;;;4870538;29;20840;-81
2024/03/24 09:03:40;;;;;;;1.50;1.10;;;8.30;98.20;;;;;;4866880;29;20505;-79
2024/03/24 09:06:10;;;;;;;1.57;1.10;;;8.30;98.20;;;;;;4866063;29;20475;-83
2024/03/24 09:08:36;;;;;;;1.50;1.20;;;8.20;98.20;;;;;;4864307;29;20459;-80
2024/03/24 09:11:03;;;;;;;1.60;1.20;;;8.20;98.20;;;;;;4863439;29;20839;-80
2024/03/24 09:13:29;;;;;;;1.50;1.20;;;8.30;98.20;;;;;;4867495;29;20634;-80
2024/03/24 09:15:58;;;;;;;1.60;1.20;;;8.40;98.20;;;;;;4867293;29;20556;-80
2024/03/24 09:18:23;;;;;;;1.50;1.10;;;8.50;98.20;;;;;;4864800;29;20218;-81
2024/03/24 09:20:52;;;;;;;1.57;1.27;;;8.50;98.20;;;;;;4863529;29;20484;-83
2024/03/24 09:23:17;;;;;;;1.50;1.10;;;8.80;98.20;;;;;;4864301;29;20702;-81
2024/03/24 09:25:45;;;;;;;1.53;1.20;;;8.90;98.20;;;;;;4861753;29;20481;-80
2024/03/24 09:28:12;;;;;;;1.57;1.17;;;9.10;98.20;;;;;;4864111;29;20226;-79
2024/03/24 09:30:39;;;;;;;1.50;1.10;;;9.20;98.20;;;;;;4865551;29;20540;-80
2024/03/24 09:33:06;;;;;;;1.53;1.20;;;9.40;98.20;;;;;;4863767;29;20498;-82
2024/03/24 09:35:32;;;;;;;1.53;1.10;;;9.60;98.20;;;;;;4864952;29;20474;-82
2024/03/24 09:38:00;;;;;;;1.50;1.10;;;9.60;98.20;;;;;;4869540;29;20471;-82
2024/03/24 09:40:26;;;;;;;1.57;1.10;;;9.70;98.20;;;;;;4865192;29;20233;-83
2024/03/24 09:42:59;;;;;;;1.53;1.10;;;9.80;98.20;;;;;;4869381;29;20530;-83
2024/03/24 09:45:31;;;;;;;1.53;1.10;;;9.90;98.20;;;;;;4867355;29;20653;-80
2024/03/24 09:48:02;;;;;;;1.57;1.00;;;10.20;98.20;;;;;;4866416;29;20481;-81
2024/03/24 09:50:31;;;;;;;1.53;1.10;;;10.40;98.20;;;;;;4865608;29;21002;-81
2024/03/24 09:53:02;;;;;;;1.50;1.00;;;10.60;98.20;;;;;;4864210;29;20483;-83
2024/03/24 09:55:31;;;;;;;1.50;1.17;;;10.60;98.20;;;;;;4864341;29;20830;-82
2024/03/24 09:57:59;;;;;;;1.50;1.00;;;10.60;98.20;;;;;;4863351;29;20471;-81
2024/03/24 10:00:26;;;;;;;1.50;1.03;;;10.70;98.20;;;;;;4862345;29;20495;-83
2024/03/24 10:02:53;;;;;;;1.50;1.10;;;11.00;98.20;;;;;;4861663;29;20491;-81
2024/03/24 10:05:20;;;;;;;1.50;1.03;;;11.20;98.20;;;;;;4859080;29;20477;-80
2024/03/24 10:07:47;;;;;;;1.50;1.00;;;11.30;98.20;;;;;;4861449;29;20974;-79
2024/03/24 10:10:15;;;;;;;1.53;1.00;;;11.20;98.20;;;;;;4860120;29;20467;-79
2024/03/24 10:12:53;;;;;;;1.50;1.00;;;11.00;98.20;;;;;;4855875;29;20503;-81
2024/03/24 10:15:22;;;;;;;1.53;1.17;;;10.70;98.20;;;;;;4864505;29;20463;-80
2024/03/24 10:18:07;;;;;;;1.50;1.00;;;10.60;98.20;;;;;;4863290;29;20475;-79
2024/03/24 10:20:40;;;;;;;1.50;1.00;;;10.60;98.20;;;;;;4862743;29;20516;-80
2024/03/24 10:23:08;;;;;;;1.50;1.10;;;10.70;98.20;;;;;;4857960;29;20499;-80
2024/03/24 10:39:03;;;;;;;1.50;1.10;;;10.20;98.20;;;;;;4881748;29;21201;-83
2024/03/24 10:41:32;;;;;;;1.50;1.20;;;10.20;98.20;;;;;;4879031;29;20470;-83
2024/03/24 10:44:10;;;;;;;1.50;1.10;;;10.50;98.20;;;;;;4878686;29;20491;-83
2024/03/24 10:46:38;;;;;;;1.50;1.00;;;10.80;98.20;;;;;;4880228;29;20509;-81
2024/03/24 10:49:12;;;;;;;1.50;1.10;;;11.10;98.20;;;;;;4874478;29;20466;-79
2024/03/24 10:51:43;;;;;;;1.50;1.10;;;11.40;98.20;;;;;;4871713;29;20470;-85
2024/03/24 10:54:11;;;;;;;1.50;1.00;;;11.70;98.20;;;;;;4877893;29;20831;-82
2024/03/24 10:56:43;;;;;;;1.50;1.00;;;11.90;98.20;;;;;;4879219;29;21005;-84
2024/03/24 10:59:11;;;;;;;1.50;1.03;;;12.10;98.20;;;;;;4879953;29;20629;-84
2024/03/24 11:01:39;;;;;;;1.50;1.00;;;12.00;98.20;;;;;;4880594;29;20582;-83
2024/03/24 11:04:07;;;;;;;1.50;1.00;;;11.70;98.20;;;;;;4880657;29;20493;-82
2024/03/24 11:06:36;;;;;;;1.50;1.00;;;11.60;98.20;;;;;;4878394;29;20478;-83
2024/03/24 11:09:02;;;;;;;1.50;1.10;;;11.60;98.20;;;;;;4879205;29;20568;-81
2024/03/24 11:11:30;;;;;;;1.50;1.00;;;11.60;98.20;;;;;;4878318;29;20493;-82
2024/03/24 11:13:58;;;;;;;1.50;1.00;;;11.60;98.20;;;;;;4876497;29;20244;-82
2024/03/24 11:16:33;;;;;;;1.50;1.00;;;11.60;98.20;;;;;;4880921;29;20518;-83
2024/03/24 11:24:55;;;;;;;1.50;1.10;;;11.00;98.20;;;;;;4879293;29;20533;-83
2024/03/24 11:27:38;;;;;;;1.50;1.00;;;10.90;98.20;;;;;;4883136;29;20940;-87
2024/03/24 11:30:14;;;;;;;1.50;1.00;;;10.80;98.20;;;;;;4882470;29;20515;-82
2024/03/24 11:33:06;;;;;;;1.50;1.00;;;10.90;98.20;;;;;;4878431;29;20506;-82
2024/03/24 11:38:47;;;;;;;1.50;1.07;;;10.80;98.20;;;;;;4860244;29;20570;-81
2024/03/24 11:41:16;;;;;;;1.50;1.17;;;10.60;98.20;;;;;;4875630;29;20500;-84
2024/03/24 11:43:43;;;;;;;1.50;1.00;;;10.50;98.20;;;;;;4877357;29;20505;-80
2024/03/24 11:46:11;;;;;;;1.50;1.00;;;10.50;98.20;;;;;;4878992;29;20478;-81
2024/03/24 11:48:39;;;;;;;1.50;1.00;;;10.50;98.20;;;;;;4879666;29;20474;-80
2024/03/24 11:54:18;;;;;;;1.50;1.00;;;10.50;98.20;;;;;;4871481;29;20468;-80
2024/03/24 11:56:45;;;;;;;1.50;1.00;;;10.50;98.20;;;;;;4877987;29;20462;-81
2024/03/24 11:59:18;;;;;;;1.50;1.00;;;10.40;98.20;;;;;;4879525;29;20526;-85
2024/03/24 12:01:48;;;;;;;1.50;1.00;;;10.40;98.20;;;;;;4878852;29;20454;-80
2024/03/24 12:04:15;;;;;;;1.50;1.10;;;10.50;98.20;;;;;;4879209;29;21021;-82
2024/03/24 12:06:41;;;;;;;1.50;1.00;;;10.60;98.20;;;;;;4881903;29;20538;-81
2024/03/24 12:09:09;;;;;;;1.50;1.10;;;10.70;98.20;;;;;;4878201;29;20560;-80
2024/03/24 12:11:35;;;;;;;1.50;1.00;;;10.70;98.20;;;;;;4879233;29;20516;-84
2024/03/24 12:14:07;;;;;;;1.50;1.10;;;10.70;98.20;;;;;;4877600;29;20467;-80
2024/03/24 12:16:36;;;;;;;1.50;1.10;;;10.70;98.20;;;;;;4879136;29;20578;-85
2024/03/24 12:19:10;;;;;;;1.50;1.00;;;10.50;98.20;;;;;;4880339;29;20470;-81
2024/03/24 12:21:38;;;;;;;1.50;1.00;;;10.40;98.20;;;;;;4880250;29;20561;-81
2024/03/24 12:24:06;;;;;;;1.50;1.10;;;10.30;98.20;;;;;;4882619;29;20494;-81
2024/03/24 12:26:33;;;;;;;1.50;1.00;;;10.40;98.20;;;;;;4883080;29;20466;-82
2024/03/24 12:28:59;;;;;;;1.50;1.00;;;10.40;98.20;;;;;;4880143;29;20894;-81
2024/03/24 12:31:26;;;;;;;1.50;1.00;;;10.40;98.20;;;;;;4878638;29;20471;-84
2024/03/24 12:33:54;;;;;;;1.50;1.00;;;10.40;98.20;;;;;;4886432;29;20506;-81
2024/03/24 12:36:21;;;;;;;1.50;1.07;;;10.40;98.20;;;;;;4880916;29;20541;-83
2024/03/24 12:38:58;;;;;;;1.50;1.13;;;10.40;98.20;;;;;;4885032;29;21402;-80
2024/03/24 12:41:24;;;;;;;1.50;1.07;;;10.40;98.20;;;;;;4880491;29;20575;-85
2024/03/24 12:43:57;;;;;;;1.50;1.10;;;10.40;98.20;;;;;;4883793;29;20478;-81
2024/03/24 12:46:30;;;;;;;1.50;1.10;;;10.30;98.20;;;;;;4881342;29;20500;-82
2024/03/24 12:49:42;;;;;;;;;;;;;;;;;;;;;
2024/03/24 12:52:18;;;;;;;1.50;1.10;;;9.90;98.20;;;;;;4880839;29;20508;-84
2024/03/24 12:55:07;;;;;;;1.50;1.00;;;9.80;98.20;;;;;;4884333;29;20505;-83
2024/03/24 12:57:34;;;;;;;1.50;1.00;;;9.80;98.20;;;;;;4878772;29;20469;-82
2024/03/24 13:00:05;;;;;;;1.50;1.20;;;9.90;98.20;;;;;;4883389;29;20502;-84
2024/03/24 13:02:32;;;;;;;1.50;1.10;;;9.90;98.20;;;;;;4882777;29;21451;-82
2024/03/24 13:04:59;;;;;;;1.50;1.10;;;10.00;98.20;;;;;;4880542;29;20505;-81
2024/03/24 13:07:28;;;;;;;1.50;1.10;;;10.00;98.20;;;;;;4884810;29;20814;-81
2024/03/24 13:09:55;;;;;;;1.50;1.10;;;10.10;98.20;;;;;;4880377;29;20470;-82
2024/03/24 13:12:21;;;;;;;1.50;1.13;;;10.20;98.20;;;;;;4879966;29;20486;-82
2024/03/24 13:14:59;;;;;;;1.50;1.10;;;10.20;98.20;;;;;;4883414;29;20465;-82
2024/03/24 13:17:32;;;;;;;1.50;1.10;;;10.30;98.20;;;;;;4878801;29;20462;-82
2024/03/24 13:20:05;;;;;;;1.50;1.10;;;10.30;98.20;;;;;;4880110;29;20501;-83
2024/03/24 13:22:33;;;;;;;2.50;2.30;;;10.30;98.20;;;;;;4880277;29;20490;-80
2024/03/24 13:25:04;;;;;;;1.50;1.10;;;10.20;98.20;;;;;;4876884;29;20502;-82
2024/03/24 13:27:35;;;;;;;1.50;1.13;;;10.20;98.20;;;;;;4879830;29;20470;-83
2024/03/24 13:30:02;;;;;;;1.50;1.10;;;10.20;98.20;;;;;;4882510;29;20844;-79
2024/03/24 13:32:28;;;;;;;1.50;1.00;;;10.10;98.20;;;;;;4877780;29;21192;-81
2024/03/24 13:34:55;;;;;;;1.50;1.10;;;10.00;98.20;;;;;;4877641;29;20466;-81
2024/03/24 13:37:26;;;;;;;1.50;1.10;;;10.00;98.20;;;;;;4878873;29;20261;-80
2024/03/24 13:40:01;;;;;;;1.50;1.20;;;9.90;98.20;;;;;;4879346;29;20505;-83
2024/03/24 13:42:45;;;;;;;1.50;1.10;;;9.90;98.20;;;;;;4879903;29;20482;-81